sensor_id;sensor_type;location;lat;lon;timestamp;pressure;altitude;pressure_sealevel;temperature;humidity
68197;BME280;55019;49.382;11.358;2023-05-29T00:01:29;96750.91;;;15.02;53.42
68197;BME280;55019;49.382;11.358;2023-05-29T00:03:56;96746.47;;;14.96;53.89
68197;BME280;55019;49.382;11.358;2023-05-29T00:06:23;96748.44;;;14.94;54.73
68197;BME280;55019;49.382;11.358;2023-05-29T00:08:49;96744.84;;;14.95;54.36
68197;BME280;55019;49.382;11.358;2023-05-29T00:11:15;96754.38;;;14.88;54.45
68197;BME280;55019;49.382;11.358;2023-05-29T00:13:41;96755.25;;;14.95;53.79
68197;BME280;55019;49.382;11.358;2023-05-29T00:16:06;96751.63;;;14.90;53.98
68197;BME280;55019;49.382;11.358;2023-05-29T00:18:35;96747.94;;;14.84;54.00
68197;BME280;55019;49.382;11.358;2023-05-29T00:21:01;96752.41;;;14.90;54.45
68197;BME280;55019;49.382;11.358;2023-05-29T00:23:27;96753.63;;;14.73;54.51
68197;BME280;55019;49.382;11.358;2023-05-29T00:25:53;96749.19;;;14.67;53.99
68197;BME280;55019;49.382;11.358;2023-05-29T00:28:18;96748.84;;;14.56;54.16
68197;BME280;55019;49.382;11.358;2023-05-29T00:30:44;96748.94;;;14.62;54.60
68197;BME280;55019;49.382;11.358;2023-05-29T00:33:13;96743.28;;;14.59;54.09
68197;BME280;55019;49.382;11.358;2023-05-29T00:35:41;96746.13;;;14.64;54.13
68197;BME280;55019;49.382;11.358;2023-05-29T00:38:06;96747.72;;;14.65;54.23
68197;BME280;55019;49.382;11.358;2023-05-29T00:40:32;96744.59;;;14.69;54.06
68197;BME280;55019;49.382;11.358;2023-05-29T00:42:58;96749.44;;;14.72;54.38
68197;BME280;55019;49.382;11.358;2023-05-29T00:45:23;96745.75;;;14.67;54.46
68197;BME280;55019;49.382;11.358;2023-05-29T00:47:49;96736.22;;;14.74;54.63
68197;BME280;55019;49.382;11.358;2023-05-29T00:50:15;96741.00;;;14.70;54.79
68197;BME280;55019;49.382;11.358;2023-05-29T00:52:43;96745.16;;;14.50;53.71
68197;BME280;55019;49.382;11.358;2023-05-29T00:55:09;96745.25;;;14.57;53.69
68197;BME280;55019;49.382;11.358;2023-05-29T00:57:36;96741.25;;;14.54;53.57
68197;BME280;55019;49.382;11.358;2023-05-29T01:00:04;96746.44;;;14.54;53.37
68197;BME280;55019;49.382;11.358;2023-05-29T01:02:37;96748.75;;;14.49;52.15
68197;BME280;55019;49.382;11.358;2023-05-29T01:05:05;96741.88;;;14.42;52.91
68197;BME280;55019;49.382;11.358;2023-05-29T01:07:32;96750.66;;;14.41;51.87
68197;BME280;55019;49.382;11.358;2023-05-29T01:09:59;96748.13;;;14.47;52.59
68197;BME280;55019;49.382;11.358;2023-05-29T01:16:32;96747.06;;;14.77;51.90
68197;BME280;55019;49.382;11.358;2023-05-29T01:19:10;96744.97;;;14.66;52.49
68197;BME280;55019;49.382;11.358;2023-05-29T01:24:50;96748.09;;;14.62;52.73
68197;BME280;55019;49.382;11.358;2023-05-29T01:27:24;96740.88;;;14.57;52.48
68197;BME280;55019;49.382;11.358;2023-05-29T01:29:52;96736.34;;;14.66;52.53
68197;BME280;55019;49.382;11.358;2023-05-29T01:32:20;96738.28;;;14.57;53.06
68197;BME280;55019;49.382;11.358;2023-05-29T01:34:46;96740.13;;;14.63;51.78
68197;BME280;55019;49.382;11.358;2023-05-29T01:37:12;96731.53;;;14.48;52.41
68197;BME280;55019;49.382;11.358;2023-05-29T01:39:38;96736.47;;;14.58;52.93
68197;BME280;55019;49.382;11.358;2023-05-29T01:42:04;96742.16;;;14.33;53.17
68197;BME280;55019;49.382;11.358;2023-05-29T01:44:34;96735.44;;;14.38;54.03
68197;BME280;55019;49.382;11.358;2023-05-29T01:47:02;96732.66;;;14.25;53.59
68197;BME280;55019;49.382;11.358;2023-05-29T01:49:28;96723.44;;;14.37;53.36
68197;BME280;55019;49.382;11.358;2023-05-29T01:51:55;96730.66;;;14.42;53.95
68197;BME280;55019;49.382;11.358;2023-05-29T01:54:20;96735.88;;;14.42;53.31
68197;BME280;55019;49.382;11.358;2023-05-29T01:56:46;96721.09;;;14.42;53.58
68197;BME280;55019;49.382;11.358;2023-05-29T01:59:13;96725.84;;;14.39;53.56
68197;BME280;55019;49.382;11.358;2023-05-29T02:01:40;96723.31;;;14.45;52.79
68197;BME280;55019;49.382;11.358;2023-05-29T02:04:06;96723.34;;;14.31;54.23
68197;BME280;55019;49.382;11.358;2023-05-29T02:06:32;96723.81;;;14.34;53.96
68197;BME280;55019;49.382;11.358;2023-05-29T02:08:58;96719.59;;;14.33;54.17
68197;BME280;55019;49.382;11.358;2023-05-29T02:11:25;96711.72;;;14.27;53.84
68197;BME280;55019;49.382;11.358;2023-05-29T02:13:52;96714.41;;;14.19;53.96
68197;BME280;55019;49.382;11.358;2023-05-29T02:16:18;96715.28;;;14.26;53.72
68197;BME280;55019;49.382;11.358;2023-05-29T02:18:47;96712.31;;;14.14;53.95
68197;BME280;55019;49.382;11.358;2023-05-29T02:21:12;96715.84;;;14.07;54.56
68197;BME280;55019;49.382;11.358;2023-05-29T02:23:38;96713.25;;;13.92;54.68
68197;BME280;55019;49.382;11.358;2023-05-29T02:26:04;96715.03;;;13.92;55.06
68197;BME280;55019;49.382;11.358;2023-05-29T02:28:30;96709.50;;;13.80;56.21
68197;BME280;55019;49.382;11.358;2023-05-29T02:30:56;96708.94;;;13.85;55.10
68197;BME280;55019;49.382;11.358;2023-05-29T02:33:22;96711.91;;;13.82;55.72
68197;BME280;55019;49.382;11.358;2023-05-29T02:35:48;96707.41;;;13.76;55.28
68197;BME280;55019;49.382;11.358;2023-05-29T02:38:13;96704.56;;;13.71;56.08
68197;BME280;55019;49.382;11.358;2023-05-29T02:40:40;96704.09;;;13.67;55.96
68197;BME280;55019;49.382;11.358;2023-05-29T02:43:06;96702.59;;;13.73;55.85
68197;BME280;55019;49.382;11.358;2023-05-29T02:45:32;96705.91;;;13.67;55.92
68197;BME280;55019;49.382;11.358;2023-05-29T02:47:59;96704.75;;;13.55;57.22
68197;BME280;55019;49.382;11.358;2023-05-29T02:50:26;96703.28;;;13.52;56.21
68197;BME280;55019;49.382;11.358;2023-05-29T02:52:52;96701.69;;;13.51;56.91
68197;BME280;55019;49.382;11.358;2023-05-29T02:55:17;96700.69;;;13.52;56.79
68197;BME280;55019;49.382;11.358;2023-05-29T02:57:43;96693.81;;;13.59;56.23
68197;BME280;55019;49.382;11.358;2023-05-29T03:00:09;96696.94;;;13.55;56.85
68197;BME280;55019;49.382;11.358;2023-05-29T03:02:36;96694.59;;;13.45;56.48
68197;BME280;55019;49.382;11.358;2023-05-29T03:05:02;96695.22;;;13.47;56.58
68197;BME280;55019;49.382;11.358;2023-05-29T03:07:28;96692.19;;;13.29;57.54
68197;BME280;55019;49.382;11.358;2023-05-29T03:09:55;96693.94;;;13.29;57.34
68197;BME280;55019;49.382;11.358;2023-05-29T03:12:22;96697.88;;;13.25;56.79
68197;BME280;55019;49.382;11.358;2023-05-29T03:14:47;96699.03;;;13.22;57.81
68197;BME280;55019;49.382;11.358;2023-05-29T03:17:13;96700.13;;;13.28;57.63
68197;BME280;55019;49.382;11.358;2023-05-29T03:19:39;96699.13;;;13.29;57.43
68197;BME280;55019;49.382;11.358;2023-05-29T03:22:04;96704.06;;;13.24;57.90
68197;BME280;55019;49.382;11.358;2023-05-29T03:24:32;96700.91;;;13.14;58.05
68197;BME280;55019;49.382;11.358;2023-05-29T03:27:00;96706.16;;;13.06;58.94
68197;BME280;55019;49.382;11.358;2023-05-29T03:29:27;96711.44;;;13.12;58.33
68197;BME280;55019;49.382;11.358;2023-05-29T03:31:54;96698.59;;;13.19;57.90
68197;BME280;55019;49.382;11.358;2023-05-29T03:34:25;96706.09;;;13.14;58.73
68197;BME280;55019;49.382;11.358;2023-05-29T03:36:57;96704.47;;;13.13;58.18
68197;BME280;55019;49.382;11.358;2023-05-29T03:39:24;96710.47;;;13.13;58.29
68197;BME280;55019;49.382;11.358;2023-05-29T03:41:50;96702.94;;;13.04;58.22
68197;BME280;55019;49.382;11.358;2023-05-29T03:44:17;96707.34;;;13.18;58.21
68197;BME280;55019;49.382;11.358;2023-05-29T03:46:43;96714.03;;;13.12;58.15
68197;BME280;55019;49.382;11.358;2023-05-29T03:49:08;96711.88;;;13.01;57.92
68197;BME280;55019;49.382;11.358;2023-05-29T03:51:41;96714.59;;;13.08;58.31
68197;BME280;55019;49.382;11.358;2023-05-29T03:54:07;96711.63;;;13.11;58.25
68197;BME280;55019;49.382;11.358;2023-05-29T03:56:33;96724.06;;;13.15;58.27
68197;BME280;55019;49.382;11.358;2023-05-29T03:59:03;96720.75;;;13.07;59.00
68197;BME280;55019;49.382;11.358;2023-05-29T04:01:31;96718.31;;;13.05;58.36
68197;BME280;55019;49.382;11.358;2023-05-29T04:03:57;96727.78;;;12.98;58.09
68197;BME280;55019;49.382;11.358;2023-05-29T04:06:22;96723.09;;;12.94;59.04
68197;BME280;55019;49.382;11.358;2023-05-29T04:08:51;96733.09;;;13.19;58.23
68197;BME280;55019;49.382;11.358;2023-05-29T04:11:17;96733.56;;;13.23;58.41
68197;BME280;55019;49.382;11.358;2023-05-29T04:13:46;96730.50;;;13.19;58.50
68197;BME280;55019;49.382;11.358;2023-05-29T04:16:13;96733.75;;;13.21;58.15
68197;BME280;55019;49.382;11.358;2023-05-29T04:18:39;96743.31;;;13.21;57.98
68197;BME280;55019;49.382;11.358;2023-05-29T04:21:05;96736.38;;;13.36;58.05
68197;BME280;55019;49.382;11.358;2023-05-29T04:23:31;96742.38;;;13.36;58.18
68197;BME280;55019;49.382;11.358;2023-05-29T04:25:57;96751.25;;;13.42;58.18
68197;BME280;55019;49.382;11.358;2023-05-29T04:28:28;96750.53;;;13.48;57.97
68197;BME280;55019;49.382;11.358;2023-05-29T04:30:55;96755.03;;;13.54;58.39
68197;BME280;55019;49.382;11.358;2023-05-29T04:33:21;96754.34;;;13.60;58.18
68197;BME280;55019;49.382;11.358;2023-05-29T04:35:50;96746.81;;;13.65;57.09
68197;BME280;55019;49.382;11.358;2023-05-29T04:38:16;96749.31;;;13.73;57.14
68197;BME280;55019;49.382;11.358;2023-05-29T04:40:43;96762.47;;;13.71;57.17
68197;BME280;55019;49.382;11.358;2023-05-29T04:43:10;96770.25;;;13.57;57.12
68197;BME280;55019;49.382;11.358;2023-05-29T04:45:59;96770.00;;;13.66;56.93
68197;BME280;55019;49.382;11.358;2023-05-29T04:48:25;96763.28;;;13.72;56.78
68197;BME280;55019;49.382;11.358;2023-05-29T04:50:52;96769.22;;;13.80;57.31
68197;BME280;55019;49.382;11.358;2023-05-29T04:53:17;96777.91;;;13.87;56.05
68197;BME280;55019;49.382;11.358;2023-05-29T04:55:47;96784.78;;;13.95;55.89
68197;BME280;55019;49.382;11.358;2023-05-29T04:58:13;96779.81;;;14.08;55.80
68197;BME280;55019;49.382;11.358;2023-05-29T05:00:39;96777.22;;;14.22;55.37
68197;BME280;55019;49.382;11.358;2023-05-29T05:03:05;96778.38;;;14.20;55.60
68197;BME280;55019;49.382;11.358;2023-05-29T05:05:32;96789.16;;;14.17;54.37
68197;BME280;55019;49.382;11.358;2023-05-29T05:08:00;96785.88;;;14.43;54.47
68197;BME280;55019;49.382;11.358;2023-05-29T05:10:26;96790.91;;;14.31;54.98
68197;BME280;55019;49.382;11.358;2023-05-29T05:12:53;96798.19;;;14.35;53.07
68197;BME280;55019;49.382;11.358;2023-05-29T05:15:20;96793.16;;;14.48;54.36
68197;BME280;55019;49.382;11.358;2023-05-29T05:17:46;96800.22;;;14.54;54.05
68197;BME280;55019;49.382;11.358;2023-05-29T05:20:12;96798.50;;;14.61;53.70
68197;BME280;55019;49.382;11.358;2023-05-29T05:22:38;96798.94;;;14.64;53.27
68197;BME280;55019;49.382;11.358;2023-05-29T05:25:05;96806.16;;;14.83;53.63
68197;BME280;55019;49.382;11.358;2023-05-29T05:27:30;96806.69;;;14.79;53.11
68197;BME280;55019;49.382;11.358;2023-05-29T05:29:56;96808.91;;;14.96;53.33
68197;BME280;55019;49.382;11.358;2023-05-29T05:32:23;96809.34;;;15.00;52.99
68197;BME280;55019;49.382;11.358;2023-05-29T05:34:55;96811.03;;;15.07;51.98
68197;BME280;55019;49.382;11.358;2023-05-29T05:37:22;96807.53;;;15.36;52.92
68197;BME280;55019;49.382;11.358;2023-05-29T05:39:50;96812.25;;;15.47;52.05
68197;BME280;55019;49.382;11.358;2023-05-29T05:42:16;96813.47;;;15.51;51.85
68197;BME280;55019;49.382;11.358;2023-05-29T05:44:50;96816.03;;;15.72;51.54
68197;BME280;55019;49.382;11.358;2023-05-29T05:47:15;96817.09;;;15.77;50.72
68197;BME280;55019;49.382;11.358;2023-05-29T05:49:41;96825.84;;;15.97;51.36
68197;BME280;55019;49.382;11.358;2023-05-29T05:52:08;96820.88;;;16.02;50.66
68197;BME280;55019;49.382;11.358;2023-05-29T05:54:34;96822.22;;;16.19;50.10
68197;BME280;55019;49.382;11.358;2023-05-29T05:57:00;96822.91;;;16.34;50.50
68197;BME280;55019;49.382;11.358;2023-05-29T05:59:26;96837.84;;;16.19;48.18
68197;BME280;55019;49.382;11.358;2023-05-29T06:01:52;96837.78;;;16.40;49.84
68197;BME280;55019;49.382;11.358;2023-05-29T06:04:18;96834.97;;;16.35;47.83
68197;BME280;55019;49.382;11.358;2023-05-29T06:06:44;96837.84;;;16.53;49.75
68197;BME280;55019;49.382;11.358;2023-05-29T06:09:10;96843.00;;;16.40;47.16
68197;BME280;55019;49.382;11.358;2023-05-29T06:11:37;96830.91;;;16.60;47.42
68197;BME280;55019;49.382;11.358;2023-05-29T06:14:03;96840.56;;;16.72;47.27
68197;BME280;55019;49.382;11.358;2023-05-29T06:16:29;96844.47;;;16.89;46.16
68197;BME280;55019;49.382;11.358;2023-05-29T06:18:56;96846.38;;;17.28;48.56
68197;BME280;55019;49.382;11.358;2023-05-29T06:21:22;96849.03;;;17.41;46.39
68197;BME280;55019;49.382;11.358;2023-05-29T06:23:53;96851.09;;;17.58;46.25
68197;BME280;55019;49.382;11.358;2023-05-29T06:26:19;96852.09;;;17.89;46.49
68197;BME280;55019;49.382;11.358;2023-05-29T06:28:47;96852.50;;;17.99;45.42
68197;BME280;55019;49.382;11.358;2023-05-29T06:31:12;96843.88;;;17.79;44.17
68197;BME280;55019;49.382;11.358;2023-05-29T06:33:38;96854.72;;;17.96;45.36
68197;BME280;55019;49.382;11.358;2023-05-29T06:36:05;96855.91;;;17.93;44.94
68197;BME280;55019;49.382;11.358;2023-05-29T06:38:34;96845.88;;;18.29;44.34
68197;BME280;55019;49.382;11.358;2023-05-29T06:41:00;96854.09;;;18.46;43.65
68197;BME280;55019;49.382;11.358;2023-05-29T06:43:27;96850.00;;;18.56;44.08
68197;BME280;55019;49.382;11.358;2023-05-29T06:45:56;96860.47;;;18.63;44.03
68197;BME280;55019;49.382;11.358;2023-05-29T06:48:22;96862.16;;;18.31;43.05
68197;BME280;55019;49.382;11.358;2023-05-29T06:50:48;96860.94;;;18.34;43.19
68197;BME280;55019;49.382;11.358;2023-05-29T06:53:45;96870.34;;;18.67;43.21
68197;BME280;55019;49.382;11.358;2023-05-29T06:56:12;96852.56;;;18.76;43.15
68197;BME280;55019;49.382;11.358;2023-05-29T06:58:38;96861.78;;;18.91;42.72
68197;BME280;55019;49.382;11.358;2023-05-29T07:01:05;96858.75;;;18.94;42.57
68197;BME280;55019;49.382;11.358;2023-05-29T07:03:53;96856.88;;;19.14;42.80
68197;BME280;55019;49.382;11.358;2023-05-29T07:06:19;96858.84;;;19.25;41.68
68197;BME280;55019;49.382;11.358;2023-05-29T07:08:45;96867.91;;;19.29;41.14
68197;BME280;55019;49.382;11.358;2023-05-29T07:11:11;96858.19;;;19.67;42.59
68197;BME280;55019;49.382;11.358;2023-05-29T07:13:37;96853.69;;;19.74;41.39
68197;BME280;55019;49.382;11.358;2023-05-29T07:16:03;96857.19;;;19.92;43.30
68197;BME280;55019;49.382;11.358;2023-05-29T07:18:32;96851.84;;;20.47;40.48
68197;BME280;55019;49.382;11.358;2023-05-29T07:20:59;96856.06;;;20.31;40.28
68197;BME280;55019;49.382;11.358;2023-05-29T07:23:27;96853.00;;;20.34;39.95
68197;BME280;55019;49.382;11.358;2023-05-29T07:25:53;96855.81;;;20.14;37.54
68197;BME280;55019;49.382;11.358;2023-05-29T07:28:18;96854.59;;;20.17;39.32
68197;BME280;55019;49.382;11.358;2023-05-29T07:30:44;96860.00;;;20.22;37.24
68197;BME280;55019;49.382;11.358;2023-05-29T07:33:10;96849.09;;;19.94;39.38
68197;BME280;55019;49.382;11.358;2023-05-29T07:35:36;96853.13;;;20.45;38.74
68197;BME280;55019;49.382;11.358;2023-05-29T07:38:03;96860.97;;;20.81;37.50
68197;BME280;55019;49.382;11.358;2023-05-29T07:40:29;96855.94;;;20.61;36.74
68197;BME280;55019;49.382;11.358;2023-05-29T07:43:10;96856.97;;;20.60;35.82
68197;BME280;55019;49.382;11.358;2023-05-29T07:45:44;96859.97;;;20.82;38.76
68197;BME280;55019;49.382;11.358;2023-05-29T07:48:10;96869.34;;;20.53;36.74
68197;BME280;55019;49.382;11.358;2023-05-29T07:50:36;96865.50;;;20.74;36.58
68197;BME280;55019;49.382;11.358;2023-05-29T07:53:02;96862.44;;;21.13;37.12
68197;BME280;55019;49.382;11.358;2023-05-29T07:55:28;96858.72;;;21.20;35.29
68197;BME280;55019;49.382;11.358;2023-05-29T07:57:55;96861.81;;;21.29;34.73
68197;BME280;55019;49.382;11.358;2023-05-29T08:00:21;96860.66;;;21.25;33.95
68197;BME280;55019;49.382;11.358;2023-05-29T08:02:47;96859.19;;;21.99;35.50
68197;BME280;55019;49.382;11.358;2023-05-29T08:05:21;96864.75;;;22.55;35.69
68197;BME280;55019;49.382;11.358;2023-05-29T08:07:48;96851.31;;;22.68;33.11
68197;BME280;55019;49.382;11.358;2023-05-29T08:10:14;96853.94;;;22.91;34.20
68197;BME280;55019;49.382;11.358;2023-05-29T08:12:40;96857.44;;;23.19;31.91
68197;BME280;55019;49.382;11.358;2023-05-29T08:15:07;96866.66;;;22.82;31.99
68197;BME280;55019;49.382;11.358;2023-05-29T08:17:34;96861.34;;;23.45;32.34
68197;BME280;55019;49.382;11.358;2023-05-29T08:20:00;96856.66;;;23.35;31.70
68197;BME280;55019;49.382;11.358;2023-05-29T08:22:29;96856.41;;;23.64;29.03
68197;BME280;55019;49.382;11.358;2023-05-29T08:24:55;96859.22;;;24.02;30.47
68197;BME280;55019;49.382;11.358;2023-05-29T08:27:21;96863.28;;;23.65;29.91
68197;BME280;55019;49.382;11.358;2023-05-29T08:29:46;96856.50;;;23.97;30.03
68197;BME280;55019;49.382;11.358;2023-05-29T08:32:12;96864.75;;;23.45;30.36
68197;BME280;55019;49.382;11.358;2023-05-29T08:34:38;96856.25;;;24.15;32.27
68197;BME280;55019;49.382;11.358;2023-05-29T08:37:04;96859.91;;;24.64;31.40
68197;BME280;55019;49.382;11.358;2023-05-29T08:39:30;96856.81;;;24.50;28.59
68197;BME280;55019;49.382;11.358;2023-05-29T08:42:01;96852.22;;;24.84;28.51
68197;BME280;55019;49.382;11.358;2023-05-29T08:44:31;96854.41;;;24.16;26.79
68197;BME280;55019;49.382;11.358;2023-05-29T08:47:03;96846.00;;;24.02;26.13
68197;BME280;55019;49.382;11.358;2023-05-29T08:49:42;96848.66;;;24.02;27.21
68197;BME280;55019;49.382;11.358;2023-05-29T08:52:33;96844.00;;;24.09;28.71
68197;BME280;55019;49.382;11.358;2023-05-29T08:55:01;96836.50;;;24.01;26.92
68197;BME280;55019;49.382;11.358;2023-05-29T08:57:28;96848.16;;;24.05;26.83
68197;BME280;55019;49.382;11.358;2023-05-29T08:59:56;96855.69;;;24.13;24.89
68197;BME280;55019;49.382;11.358;2023-05-29T09:02:22;96858.94;;;24.37;27.99
68197;BME280;55019;49.382;11.358;2023-05-29T09:04:48;96856.94;;;24.44;25.74
68197;BME280;55019;49.382;11.358;2023-05-29T09:07:22;96852.16;;;23.91;25.82
68197;BME280;55019;49.382;11.358;2023-05-29T09:09:48;96839.31;;;24.49;26.45
68197;BME280;55019;49.382;11.358;2023-05-29T09:12:15;96848.88;;;24.34;26.35
68197;BME280;55019;49.382;11.358;2023-05-29T09:14:43;96844.78;;;24.59;27.22
68197;BME280;55019;49.382;11.358;2023-05-29T09:17:11;96844.00;;;24.59;27.62
68197;BME280;55019;49.382;11.358;2023-05-29T09:19:38;96852.25;;;25.05;27.83
68197;BME280;55019;49.382;11.358;2023-05-29T09:22:07;96850.84;;;25.19;25.50
68197;BME280;55019;49.382;11.358;2023-05-29T09:24:35;96846.47;;;25.29;29.55
68197;BME280;55019;49.382;11.358;2023-05-29T09:27:02;96857.41;;;25.86;29.30
68197;BME280;55019;49.382;11.358;2023-05-29T09:29:41;96851.78;;;25.82;28.03
68197;BME280;55019;49.382;11.358;2023-05-29T09:32:09;96854.09;;;26.37;28.44
68197;BME280;55019;49.382;11.358;2023-05-29T09:34:35;96855.56;;;26.23;26.41
68197;BME280;55019;49.382;11.358;2023-05-29T09:37:05;96851.09;;;26.64;25.88
68197;BME280;55019;49.382;11.358;2023-05-29T09:39:35;96858.13;;;26.85;26.83
68197;BME280;55019;49.382;11.358;2023-05-29T09:42:09;96851.91;;;27.21;27.17
68197;BME280;55019;49.382;11.358;2023-05-29T09:44:35;96855.06;;;27.13;25.48
68197;BME280;55019;49.382;11.358;2023-05-29T09:47:01;96856.88;;;26.57;26.19
68197;BME280;55019;49.382;11.358;2023-05-29T09:49:26;96852.72;;;27.17;26.64
68197;BME280;55019;49.382;11.358;2023-05-29T09:51:56;96849.00;;;27.13;25.49
68197;BME280;55019;49.382;11.358;2023-05-29T09:54:21;96859.22;;;26.48;26.57
68197;BME280;55019;49.382;11.358;2023-05-29T09:56:48;96860.03;;;26.49;26.02
68197;BME280;55019;49.382;11.358;2023-05-29T09:59:15;96849.78;;;27.23;27.96
68197;BME280;55019;49.382;11.358;2023-05-29T10:01:44;96850.09;;;27.27;24.22
68197;BME280;55019;49.382;11.358;2023-05-29T10:04:10;96865.94;;;26.65;26.68
68197;BME280;55019;49.382;11.358;2023-05-29T10:06:37;96857.38;;;27.71;26.29
68197;BME280;55019;49.382;11.358;2023-05-29T10:09:09;96856.34;;;28.07;25.70
68197;BME280;55019;49.382;11.358;2023-05-29T10:11:37;96858.56;;;26.36;25.45
68197;BME280;55019;49.382;11.358;2023-05-29T10:14:05;96849.28;;;27.26;24.91
68197;BME280;55019;49.382;11.358;2023-05-29T10:16:32;96856.78;;;26.88;26.47
68197;BME280;55019;49.382;11.358;2023-05-29T10:19:01;96851.81;;;27.01;25.59
68197;BME280;55019;49.382;11.358;2023-05-29T10:21:36;96857.84;;;27.48;24.62
68197;BME280;55019;49.382;11.358;2023-05-29T10:24:05;96853.06;;;27.45;24.30
68197;BME280;55019;49.382;11.358;2023-05-29T10:26:37;96844.94;;;28.16;26.47
68197;BME280;55019;49.382;11.358;2023-05-29T10:32:27;96849.91;;;27.58;23.69
68197;BME280;55019;49.382;11.358;2023-05-29T10:35:08;96847.31;;;28.48;24.65
68197;BME280;55019;49.382;11.358;2023-05-29T10:40:12;96843.59;;;27.03;25.22
68197;BME280;55019;49.382;11.358;2023-05-29T10:45:04;96843.53;;;27.54;25.75
68197;BME280;55019;49.382;11.358;2023-05-29T10:47:30;96836.63;;;27.48;26.31
68197;BME280;55019;49.382;11.358;2023-05-29T10:50:00;96835.56;;;28.89;25.68
68197;BME280;55019;49.382;11.358;2023-05-29T10:52:33;96835.03;;;28.87;24.12
68197;BME280;55019;49.382;11.358;2023-05-29T10:54:59;96838.69;;;29.01;23.37
68197;BME280;55019;49.382;11.358;2023-05-29T10:57:28;96834.63;;;29.18;22.94
68197;BME280;55019;49.382;11.358;2023-05-29T11:00:06;96838.00;;;27.86;24.72
68197;BME280;55019;49.382;11.358;2023-05-29T11:02:38;96835.88;;;28.47;23.71
68197;BME280;55019;49.382;11.358;2023-05-29T11:05:21;96835.16;;;29.20;23.75
68197;BME280;55019;49.382;11.358;2023-05-29T11:07:57;96829.81;;;29.20;23.89
68197;BME280;55019;49.382;11.358;2023-05-29T11:10:45;96829.41;;;29.90;23.99
68197;BME280;55019;49.382;11.358;2023-05-29T11:13:39;96820.06;;;29.54;22.74
68197;BME280;55019;49.382;11.358;2023-05-29T11:16:19;96820.66;;;29.41;24.52
68197;BME280;55019;49.382;11.358;2023-05-29T11:18:47;96820.19;;;28.56;23.94
68197;BME280;55019;49.382;11.358;2023-05-29T11:21:22;96823.81;;;28.80;25.82
68197;BME280;55019;49.382;11.358;2023-05-29T11:23:53;96821.53;;;28.48;25.08
68197;BME280;55019;49.382;11.358;2023-05-29T11:26:21;96821.69;;;28.82;26.26
68197;BME280;55019;49.382;11.358;2023-05-29T11:28:48;96821.25;;;29.28;23.62
68197;BME280;55019;49.382;11.358;2023-05-29T11:31:15;96819.38;;;29.29;24.84
68197;BME280;55019;49.382;11.358;2023-05-29T11:33:47;96823.22;;;29.08;26.23
68197;BME280;55019;49.382;11.358;2023-05-29T11:36:14;96815.41;;;28.28;24.97
68197;BME280;55019;49.382;11.358;2023-05-29T11:38:40;96816.41;;;28.72;24.32
68197;BME280;55019;49.382;11.358;2023-05-29T11:41:05;96815.34;;;28.73;24.66
68197;BME280;55019;49.382;11.358;2023-05-29T11:43:31;96810.59;;;28.60;24.07
68197;BME280;55019;49.382;11.358;2023-05-29T11:45:58;96806.41;;;28.09;25.07
68197;BME280;55019;49.382;11.358;2023-05-29T11:48:24;96808.75;;;28.55;25.49
68197;BME280;55019;49.382;11.358;2023-05-29T11:50:49;96809.25;;;28.57;23.96
68197;BME280;55019;49.382;11.358;2023-05-29T11:53:15;96818.63;;;29.23;23.91
68197;BME280;55019;49.382;11.358;2023-05-29T11:55:41;96814.78;;;28.96;24.00
68197;BME280;55019;49.382;11.358;2023-05-29T11:58:07;96823.03;;;29.53;23.88
68197;BME280;55019;49.382;11.358;2023-05-29T12:00:35;96824.41;;;28.67;23.48
68197;BME280;55019;49.382;11.358;2023-05-29T12:03:02;96805.22;;;28.75;23.18
68197;BME280;55019;49.382;11.358;2023-05-29T12:05:32;96807.38;;;28.88;24.72
68197;BME280;55019;49.382;11.358;2023-05-29T12:07:58;96819.69;;;29.27;25.03
68197;BME280;55019;49.382;11.358;2023-05-29T12:10:27;96814.44;;;29.07;25.68
68197;BME280;55019;49.382;11.358;2023-05-29T12:12:55;96816.66;;;29.44;22.31
68197;BME280;55019;49.382;11.358;2023-05-29T12:15:22;96815.28;;;29.51;22.08
68197;BME280;55019;49.382;11.358;2023-05-29T12:17:51;96810.19;;;29.60;21.79
68197;BME280;55019;49.382;11.358;2023-05-29T12:20:21;96807.03;;;28.99;22.22
68197;BME280;55019;49.382;11.358;2023-05-29T12:22:47;96812.84;;;29.60;22.91
68197;BME280;55019;49.382;11.358;2023-05-29T12:25:17;96809.94;;;29.61;22.58
68197;BME280;55019;49.382;11.358;2023-05-29T12:27:45;96802.28;;;29.83;22.59
68197;BME280;55019;49.382;11.358;2023-05-29T12:32:43;96793.41;;;29.11;21.54
68197;BME280;55019;49.382;11.358;2023-05-29T12:35:13;96799.19;;;28.44;24.41
68197;BME280;55019;49.382;11.358;2023-05-29T12:37:47;96796.78;;;28.58;23.94
68197;BME280;55019;49.382;11.358;2023-05-29T12:40:15;96803.06;;;28.97;23.47
68197;BME280;55019;49.382;11.358;2023-05-29T12:42:41;96806.63;;;29.26;23.69
68197;BME280;55019;49.382;11.358;2023-05-29T12:45:08;96808.41;;;28.92;22.10
68197;BME280;55019;49.382;11.358;2023-05-29T12:47:38;96800.44;;;28.92;21.31
68197;BME280;55019;49.382;11.358;2023-05-29T12:50:30;96801.53;;;28.66;21.49
68197;BME280;55019;49.382;11.358;2023-05-29T12:53:01;96797.72;;;29.02;20.77
68197;BME280;55019;49.382;11.358;2023-05-29T12:55:32;96787.47;;;28.65;22.96
68197;BME280;55019;49.382;11.358;2023-05-29T12:58:08;96794.06;;;28.88;22.72
68197;BME280;55019;49.382;11.358;2023-05-29T13:00:36;96789.91;;;28.52;23.62
68197;BME280;55019;49.382;11.358;2023-05-29T13:03:02;96797.91;;;28.37;22.42
68197;BME280;55019;49.382;11.358;2023-05-29T13:05:28;96793.13;;;27.74;22.77
68197;BME280;55019;49.382;11.358;2023-05-29T13:07:54;96798.72;;;27.88;23.23
68197;BME280;55019;49.382;11.358;2023-05-29T13:10:21;96787.84;;;27.84;22.37
68197;BME280;55019;49.382;11.358;2023-05-29T13:12:48;96784.09;;;27.70;22.23